DTW weather

Detroit Metropolitan Wayne County Airport
Detroit, Michigan, United States

Public forecast

Using degrees Fahrenheit for public forecast. Weather courtesy of forecast.io.

METAR (pilot weather report)

Retrieved 2017/06/27 01:53 UTC (1 hour ago):

KDTW 270153Z 30009G16KT 10SM -RA SCT065 BKN100 16/08 A2998 RMK AO2 RAB53 SLP151 P0000 T01610083

TAF (pilot weather forecast)

Forecast is more than 12 hours old.

Retrieved 2017/06/26 00:36 UTC (1 day ago):

TAF KDTW 262333Z 2700/2806 27014G22KT P6SM BKN070 TEMPO 2700/2703 -SHRA FM270300 29009KT P6SM SCT070 FM270500 27007KT P6SM BKN045 FM271200 29011KT P6SM SKC FM271700 30012KT P6SM BKN060 FM272300 27008KT P6SM SCT050